createdAt,value
2022-10-04T00:05:12.133Z,9.60
2022-10-04T00:07:54.542Z,9.60
2022-10-04T00:10:32.609Z,9.60
2022-10-04T00:13:15.822Z,9.60
2022-10-04T00:15:50.684Z,9.50
2022-10-04T00:18:39.288Z,9.40
2022-10-04T00:21:11.873Z,9.40
2022-10-04T00:23:46.290Z,9.30
2022-10-04T00:26:24.947Z,9.20
2022-10-04T00:28:57.277Z,9.20
2022-10-04T00:31:29.694Z,9.20
2022-10-04T00:34:07.817Z,9.20
2022-10-04T00:36:54.028Z,9.20
2022-10-04T00:39:35.560Z,9.10
2022-10-04T00:42:29.052Z,9.20
2022-10-04T00:45:14.245Z,9.10
2022-10-04T00:47:49.316Z,9.20
2022-10-04T00:50:40.318Z,9.20
2022-10-04T00:53:35.689Z,9.20
2022-10-04T00:56:15.513Z,9.20
2022-10-04T00:59:29.506Z,9.20
2022-10-04T01:02:08.310Z,9.20
2022-10-04T01:04:57.331Z,9.20
2022-10-04T01:07:44.891Z,9.10
2022-10-04T01:10:32.114Z,9.00
2022-10-04T01:13:14.968Z,9.10
2022-10-04T01:16:10.393Z,9.10
2022-10-04T01:18:42.661Z,9.10
2022-10-04T01:21:21.360Z,9.90
2022-10-04T01:23:59.610Z,9.50
2022-10-04T01:26:38.769Z,9.40
2022-10-04T01:29:29.557Z,9.30
2022-10-04T01:32:01.902Z,9.20
2022-10-04T01:34:34.678Z,9.10
2022-10-04T01:37:07.064Z,9.10
2022-10-04T01:39:38.994Z,9.10
2022-10-04T01:42:48.847Z,9.10
2022-10-04T01:45:35.871Z,9.20
2022-10-04T01:48:15.425Z,9.10
2022-10-04T01:50:57.004Z,9.00
2022-10-04T01:53:32.677Z,8.90
2022-10-04T01:56:16.131Z,8.90
2022-10-04T01:59:02.134Z,8.80
2022-10-04T02:01:44.048Z,8.90
2022-10-04T02:04:22.483Z,8.90
2022-10-04T02:06:59.642Z,8.90
2022-10-04T02:09:38.842Z,8.90
2022-10-04T02:12:16.788Z,9.00
2022-10-04T02:14:55.669Z,8.90
2022-10-04T02:17:32.704Z,8.90
2022-10-04T02:20:14.069Z,8.80
2022-10-04T02:22:55.324Z,8.80
2022-10-04T02:25:27.381Z,8.80
2022-10-04T02:28:00.676Z,8.80
2022-10-04T02:30:38.793Z,8.80
2022-10-04T02:33:11.274Z,8.80
2022-10-04T02:35:48.115Z,9.00
2022-10-04T02:38:26.528Z,9.00
2022-10-04T02:41:05.225Z,9.00
2022-10-04T02:43:56.090Z,9.00
2022-10-04T02:46:41.287Z,9.00
2022-10-04T02:49:28.777Z,9.00
2022-10-04T02:52:34.489Z,9.00
2022-10-04T02:55:30.172Z,9.00
2022-10-04T02:58:02.908Z,8.90
2022-10-04T03:00:48.856Z,9.00
2022-10-04T03:03:46.800Z,9.00
2022-10-04T03:06:23.119Z,8.90
2022-10-04T03:09:05.490Z,8.80
2022-10-04T03:11:40.703Z,8.70
2022-10-04T03:14:20.956Z,8.60
2022-10-04T03:16:56.654Z,8.60
2022-10-04T03:19:31.221Z,8.50
2022-10-04T03:22:09.646Z,8.50
2022-10-04T03:24:53.409Z,8.50
2022-10-04T03:27:45.309Z,8.50
2022-10-04T03:30:21.026Z,8.50
2022-10-04T03:32:53.923Z,8.60
2022-10-04T03:35:34.913Z,8.50
2022-10-04T03:38:12.857Z,8.50
2022-10-04T03:40:56.161Z,8.50
2022-10-04T03:43:34.761Z,8.50
2022-10-04T03:46:09.856Z,8.60
2022-10-04T03:48:46.359Z,8.80
2022-10-04T03:51:26.779Z,9.90
2022-10-04T03:54:01.898Z,9.40
2022-10-04T03:56:37.362Z,9.10
2022-10-04T03:59:18.114Z,9.00
2022-10-04T04:02:16.606Z,8.80
2022-10-04T04:05:26.798Z,8.80
2022-10-04T04:08:15.109Z,8.70
2022-10-04T04:10:51.879Z,8.70
2022-10-04T04:13:26.679Z,8.70
2022-10-04T04:16:02.583Z,8.70
2022-10-04T04:18:39.087Z,8.70
2022-10-04T04:21:18.621Z,8.60
2022-10-04T04:23:58.841Z,8.60
2022-10-04T04:26:42.144Z,8.60
2022-10-04T04:29:43.811Z,8.60
2022-10-04T04:32:20.725Z,8.60
2022-10-04T04:35:08.157Z,8.60
2022-10-04T04:40:21.675Z,8.60
2022-10-04T04:42:59.500Z,8.60
2022-10-04T04:45:34.032Z,8.60
2022-10-04T04:48:07.464Z,8.50
2022-10-04T04:50:41.016Z,8.60
2022-10-04T04:53:22.764Z,8.60
2022-10-04T04:56:04.318Z,8.70
2022-10-04T04:58:43.512Z,8.70
2022-10-04T05:01:26.193Z,8.70
2022-10-04T05:04:12.408Z,8.70
2022-10-04T05:06:49.370Z,8.60
2022-10-04T05:09:40.519Z,8.60
2022-10-04T05:12:20.728Z,8.50
2022-10-04T05:14:54.945Z,8.40
2022-10-04T05:17:34.196Z,8.40
2022-10-04T05:20:07.557Z,8.30
2022-10-04T05:22:47.003Z,8.30
2022-10-04T05:25:32.748Z,8.40
2022-10-04T05:28:06.097Z,8.40
2022-10-04T05:33:22.695Z,8.40
2022-10-04T05:36:35.310Z,8.50
2022-10-04T05:39:29.479Z,8.50
2022-10-04T05:42:45.706Z,7.20
2022-10-04T05:45:37.151Z,8.50
2022-10-04T05:48:12.980Z,8.50
2022-10-04T05:50:45.295Z,8.50
2022-10-04T05:53:34.388Z,8.40
2022-10-04T05:56:21.287Z,8.50
2022-10-04T05:59:06.309Z,8.20
2022-10-04T06:02:06.993Z,8.60
2022-10-04T06:05:12.984Z,8.70
2022-10-04T06:08:02.606Z,8.70
2022-10-04T06:10:55.913Z,8.80
2022-10-04T06:14:00.007Z,8.90
2022-10-04T06:16:54.227Z,9.00
2022-10-04T06:19:54.174Z,9.20
2022-10-04T06:22:26.839Z,9.30
2022-10-04T06:25:13.563Z,9.40
2022-10-04T06:28:04.077Z,9.50
2022-10-04T06:31:08.628Z,9.50
2022-10-04T06:33:47.377Z,9.60
2022-10-04T06:36:42.471Z,9.70
2022-10-04T06:39:43.768Z,9.70
2022-10-04T06:42:43.854Z,9.80
2022-10-04T06:45:36.818Z,9.80
2022-10-04T06:48:48.132Z,9.70
2022-10-04T06:51:40.792Z,10.00
2022-10-04T06:57:52.736Z,10.40
2022-10-04T07:00:26.861Z,10.50
2022-10-04T07:03:06.083Z,10.60
2022-10-04T07:06:04.976Z,10.60
2022-10-04T07:08:51.113Z,10.80
2022-10-04T07:12:04.034Z,10.80
2022-10-04T07:14:52.453Z,10.80
2022-10-04T07:17:30.654Z,11.00
2022-10-04T07:20:06.664Z,11.10
2022-10-04T07:22:51.606Z,11.10
2022-10-04T07:25:31.420Z,11.10
2022-10-04T07:28:36.840Z,11.20
2022-10-04T07:31:23.111Z,10.90
2022-10-04T07:34:02.174Z,11.10
2022-10-04T07:36:51.093Z,11.20
2022-10-04T07:40:22.315Z,11.40
2022-10-04T07:43:14.117Z,11.80
2022-10-04T07:45:48.049Z,11.90
2022-10-04T07:48:24.837Z,11.90
2022-10-04T07:51:41.844Z,11.90
2022-10-04T07:54:39.318Z,12.00
2022-10-04T07:57:11.888Z,12.10
2022-10-04T08:00:18.186Z,12.10
2022-10-04T08:03:31.107Z,12.30
2022-10-04T08:06:56.756Z,12.40
2022-10-04T08:09:57.948Z,12.60
2022-10-04T08:13:02.989Z,12.80
2022-10-04T08:15:43.557Z,13.70
2022-10-04T08:19:28.363Z,14.30
2022-10-04T08:22:25.678Z,14.40
2022-10-04T08:25:10.392Z,14.70
2022-10-04T08:28:32.495Z,15.10
2022-10-04T08:31:09.610Z,15.30
2022-10-04T08:34:08.052Z,15.70
2022-10-04T08:37:26.191Z,16.10
2022-10-04T08:40:34.370Z,16.10
2022-10-04T08:43:57.095Z,16.40
2022-10-04T08:47:22.191Z,16.70
2022-10-04T08:50:33.522Z,16.70
2022-10-04T08:53:21.895Z,16.70
2022-10-04T08:56:39.725Z,16.80
2022-10-04T08:59:52.671Z,16.90
2022-10-04T09:02:51.050Z,17.40
2022-10-04T09:05:37.278Z,17.70
2022-10-04T09:08:59.715Z,18.10
2022-10-04T09:12:00.607Z,18.20
2022-10-04T09:14:51.221Z,17.60
2022-10-04T09:18:22.475Z,17.60
2022-10-04T09:21:11.507Z,18.00
2022-10-04T09:23:56.893Z,20.70
2022-10-04T09:27:10.737Z,17.60
2022-10-04T09:29:59.741Z,17.80
2022-10-04T09:33:08.830Z,18.40
2022-10-04T09:36:22.531Z,19.40
2022-10-04T09:42:15.628Z,19.50
2022-10-04T09:45:06.636Z,20.40
2022-10-04T09:47:45.843Z,21.00
2022-10-04T09:51:01.375Z,21.20
2022-10-04T09:54:16.060Z,21.90
2022-10-04T09:57:13.689Z,21.90
2022-10-04T10:00:18.529Z,20.90
2022-10-04T10:03:24.934Z,20.70
2022-10-04T10:06:05.948Z,20.00
2022-10-04T10:09:06.915Z,19.60
2022-10-04T10:12:03.869Z,19.50
2022-10-04T10:15:03.097Z,19.60
2022-10-04T10:18:09.543Z,19.40
2022-10-04T10:21:17.974Z,18.70
2022-10-04T10:24:17.585Z,19.40
2022-10-04T10:27:15.633Z,20.60
2022-10-04T10:30:15.478Z,21.20
2022-10-04T10:33:32.512Z,20.60
2022-10-04T10:36:55.706Z,20.30
2022-10-04T10:40:00.740Z,19.20
2022-10-04T10:43:02.244Z,19.30
2022-10-04T10:46:04.962Z,19.60
2022-10-04T10:49:28.961Z,20.20
2022-10-04T10:52:38.453Z,19.70
2022-10-04T10:55:59.503Z,19.60
2022-10-04T10:59:25.574Z,19.10
2022-10-04T11:02:50.212Z,19.40
2022-10-04T11:05:49.999Z,19.70
2022-10-04T11:09:05.511Z,19.20
2022-10-04T11:12:07.396Z,19.00
2022-10-04T11:14:54.689Z,19.00
2022-10-04T11:17:47.804Z,19.30
2022-10-04T11:21:26.132Z,19.40
2022-10-04T11:24:34.868Z,19.00
2022-10-04T11:27:49.311Z,18.90
2022-10-04T11:30:26.781Z,19.00
2022-10-04T11:33:18.478Z,19.10
2022-10-04T11:36:57.045Z,19.30
2022-10-04T11:40:01.276Z,18.90
2022-10-04T11:43:01.050Z,18.70
2022-10-04T11:45:56.963Z,18.80
2022-10-04T11:48:56.411Z,18.40
2022-10-04T11:51:40.795Z,18.90
2022-10-04T11:54:38.770Z,19.00
2022-10-04T11:57:25.963Z,19.50
2022-10-04T12:00:24.905Z,19.70
2022-10-04T12:03:41.527Z,20.30
2022-10-04T12:06:34.946Z,19.90
2022-10-04T12:09:47.644Z,19.80
2022-10-04T12:12:39.963Z,20.20
2022-10-04T12:15:22.561Z,20.00
2022-10-04T12:18:20.159Z,19.80
2022-10-04T12:21:07.554Z,19.60
2022-10-04T12:24:38.869Z,19.60
2022-10-04T12:27:43.807Z,19.10
2022-10-04T12:30:50.828Z,19.10
2022-10-04T12:33:37.784Z,19.40
2022-10-04T12:36:48.666Z,19.60
2022-10-04T12:39:49.878Z,19.60
2022-10-04T12:42:46.884Z,19.80
2022-10-04T12:45:43.947Z,19.80
2022-10-04T12:48:51.731Z,19.60
2022-10-04T12:52:00.027Z,19.80
2022-10-04T12:55:02.892Z,19.80
2022-10-04T12:57:55.743Z,19.70
2022-10-04T13:00:35.762Z,19.70
2022-10-04T13:03:40.120Z,19.70
2022-10-04T13:06:43.750Z,19.60
2022-10-04T13:10:19.274Z,19.70
2022-10-04T13:13:38.540Z,19.80
2022-10-04T13:19:50.273Z,19.60
2022-10-04T13:22:56.951Z,19.60
2022-10-04T13:26:02.694Z,19.70
2022-10-04T13:28:48.696Z,19.60
2022-10-04T13:31:24.310Z,19.60
2022-10-04T13:34:53.494Z,19.60
2022-10-04T13:37:45.999Z,19.60
2022-10-04T13:40:35.696Z,19.60
2022-10-04T13:43:50.966Z,19.60
2022-10-04T13:47:05.572Z,19.40
2022-10-04T13:50:14.890Z,19.60
2022-10-04T13:53:22.072Z,19.60
2022-10-04T13:56:21.538Z,19.70
2022-10-04T13:59:35.012Z,19.80
2022-10-04T14:02:47.886Z,19.90
2022-10-04T14:05:42.741Z,19.90
2022-10-04T14:08:48.702Z,19.90
2022-10-04T14:11:53.507Z,19.90
2022-10-04T14:14:28.843Z,19.80
2022-10-04T14:18:03.870Z,19.80
2022-10-04T14:23:37.738Z,19.70
2022-10-04T14:26:39.499Z,19.70
2022-10-04T14:29:48.976Z,19.80
2022-10-04T14:32:42.835Z,19.80
2022-10-04T14:35:42.519Z,19.70
2022-10-04T14:38:47.973Z,19.80
2022-10-04T14:41:39.859Z,19.70
2022-10-04T14:44:36.701Z,19.60
2022-10-04T14:47:42.680Z,19.70
2022-10-04T14:50:24.868Z,19.80
2022-10-04T14:53:22.556Z,19.80
2022-10-04T14:56:46.921Z,19.80
2022-10-04T15:00:09.599Z,19.70
2022-10-04T15:03:15.558Z,19.80
2022-10-04T15:06:48.484Z,19.80
2022-10-04T15:09:40.754Z,19.80
2022-10-04T15:12:51.938Z,19.70
2022-10-04T15:15:54.562Z,19.80
2022-10-04T15:19:12.567Z,19.70
2022-10-04T15:21:56.163Z,19.70
2022-10-04T15:24:32.183Z,19.70
2022-10-04T15:27:22.050Z,19.70
2022-10-04T15:30:25.270Z,19.80
2022-10-04T15:33:27.506Z,19.70
2022-10-04T15:36:43.959Z,19.70
2022-10-04T15:39:57.869Z,19.70
2022-10-04T15:42:36.742Z,19.60
2022-10-04T15:45:17.699Z,19.60
2022-10-04T15:47:59.085Z,19.50
2022-10-04T15:50:43.599Z,19.50
2022-10-04T15:53:43.405Z,19.40
2022-10-04T15:56:41.361Z,19.40
2022-10-04T15:59:46.140Z,19.30
2022-10-04T16:02:48.832Z,19.30
2022-10-04T16:05:25.279Z,19.20
2022-10-04T16:08:06.415Z,19.20
2022-10-04T16:11:00.597Z,19.20
2022-10-04T16:14:00.623Z,19.10
2022-10-04T16:16:59.928Z,19.00
2022-10-04T16:19:49.356Z,18.90
2022-10-04T16:22:31.653Z,18.80
2022-10-04T16:25:25.575Z,18.70
2022-10-04T16:27:58.570Z,18.60
2022-10-04T16:31:24.541Z,18.50
2022-10-04T16:34:15.124Z,18.40
2022-10-04T16:37:21.519Z,18.30
2022-10-04T16:40:09.421Z,18.10
2022-10-04T16:43:04.882Z,17.90
2022-10-04T16:46:37.881Z,17.60
2022-10-04T16:49:26.061Z,17.50
2022-10-04T16:52:16.043Z,17.20
2022-10-04T16:55:35.715Z,17.00
2022-10-04T16:58:26.806Z,16.80
2022-10-04T17:01:24.651Z,16.60
2022-10-04T17:04:36.713Z,16.40
2022-10-04T17:07:14.835Z,16.10
2022-10-04T17:09:54.903Z,16.10
2022-10-04T17:12:46.727Z,15.90
2022-10-04T17:15:49.939Z,15.80
2022-10-04T17:18:56.031Z,15.70
2022-10-04T17:21:37.994Z,15.60
2022-10-04T17:24:41.033Z,15.70
2022-10-04T17:27:50.870Z,15.70
2022-10-04T17:30:27.559Z,15.60
2022-10-04T17:33:18.158Z,15.50
2022-10-04T17:36:34.116Z,15.50
2022-10-04T17:39:42.112Z,15.30
2022-10-04T17:42:30.631Z,15.30
2022-10-04T17:45:46.823Z,15.20
2022-10-04T17:48:49.340Z,15.10
2022-10-04T17:52:03.915Z,15.00
2022-10-04T17:54:57.768Z,14.90
2022-10-04T17:57:51.070Z,14.80
2022-10-04T18:00:25.964Z,14.70
2022-10-04T18:03:53.477Z,14.70
2022-10-04T18:06:56.355Z,14.60
2022-10-04T18:12:29.708Z,14.50
2022-10-04T18:17:46.021Z,14.50
2022-10-04T18:25:56.539Z,14.60
2022-10-04T18:28:29.397Z,14.40
2022-10-04T18:31:29.348Z,14.40
2022-10-04T18:34:17.780Z,14.30
2022-10-04T18:37:40.782Z,14.30
2022-10-04T18:40:26.969Z,14.20
2022-10-04T18:43:03.000Z,14.10
2022-10-04T18:45:37.392Z,14.20
2022-10-04T18:48:18.653Z,14.20
2022-10-04T18:50:51.263Z,14.20
2022-10-04T18:53:45.110Z,14.20
2022-10-04T18:56:18.860Z,14.10
2022-10-04T18:59:52.112Z,14.10
2022-10-04T19:02:45.006Z,13.90
2022-10-04T19:05:29.219Z,13.70
2022-10-04T19:10:58.095Z,13.60
2022-10-04T19:13:45.928Z,13.60
2022-10-04T19:16:52.458Z,13.60
2022-10-04T19:19:57.790Z,13.60
2022-10-04T19:23:03.362Z,13.50
2022-10-04T19:25:41.464Z,13.60
2022-10-04T19:28:24.262Z,13.50
2022-10-04T19:31:12.471Z,13.50
2022-10-04T19:34:11.179Z,13.50
2022-10-04T19:36:50.948Z,13.50
2022-10-04T19:39:58.980Z,13.40
2022-10-04T19:42:58.870Z,13.40
2022-10-04T19:45:46.873Z,13.30
2022-10-04T19:48:26.035Z,13.30
2022-10-04T19:51:10.968Z,13.20
2022-10-04T19:53:45.976Z,13.10
2022-10-04T19:56:29.416Z,13.00
2022-10-04T19:59:12.665Z,13.00
2022-10-04T20:01:49.964Z,13.00
2022-10-04T20:04:42.438Z,13.00
2022-10-04T20:07:14.917Z,12.90
2022-10-04T20:10:29.796Z,12.80
2022-10-04T20:13:10.766Z,12.80
2022-10-04T20:15:49.923Z,12.80
2022-10-04T20:18:33.762Z,12.80
2022-10-04T20:21:10.867Z,12.70
2022-10-04T20:23:47.839Z,12.90
2022-10-04T20:26:54.002Z,12.80
2022-10-04T20:29:52.983Z,12.90
2022-10-04T20:32:33.063Z,12.90
2022-10-04T20:35:11.106Z,13.00
2022-10-04T20:38:19.955Z,12.90
2022-10-04T20:40:51.162Z,12.90
2022-10-04T20:43:23.982Z,13.00
2022-10-04T20:48:32.239Z,12.90
2022-10-04T20:51:11.081Z,12.80
2022-10-04T20:53:47.436Z,12.70
2022-10-04T20:56:31.628Z,12.70
2022-10-04T20:59:04.527Z,12.60
2022-10-04T21:01:37.617Z,12.50
2022-10-04T21:04:30.083Z,12.40
2022-10-04T21:09:38.101Z,12.30
2022-10-04T21:12:40.614Z,12.40
2022-10-04T21:15:21.635Z,12.40
2022-10-04T21:18:03.725Z,12.30
2022-10-04T21:20:49.483Z,12.30
2022-10-04T21:23:33.590Z,12.30
2022-10-04T21:26:24.406Z,12.30
2022-10-04T21:28:58.174Z,12.20
2022-10-04T21:31:30.988Z,12.10
2022-10-04T21:34:03.153Z,12.10
2022-10-04T21:36:35.988Z,12.00
2022-10-04T21:39:07.957Z,12.10
2022-10-04T21:41:40.775Z,12.10
2022-10-04T21:44:13.011Z,12.00
2022-10-04T21:46:45.872Z,12.00
2022-10-04T21:49:17.854Z,11.90
2022-10-04T21:51:50.539Z,12.00
2022-10-04T21:54:23.611Z,12.00
2022-10-04T21:56:56.287Z,12.00
2022-10-04T21:59:28.401Z,11.90
2022-10-04T22:04:33.610Z,12.10
2022-10-04T22:09:38.638Z,12.10
2022-10-04T22:12:11.328Z,12.10
2022-10-04T22:14:43.289Z,12.10
2022-10-04T22:17:16.074Z,12.00
2022-10-04T22:19:50.234Z,12.10
2022-10-04T22:22:22.616Z,12.00
2022-10-04T22:24:54.560Z,12.00
2022-10-04T22:27:29.577Z,11.90
2022-10-04T22:30:02.072Z,11.90
2022-10-04T22:32:35.025Z,11.80
2022-10-04T22:35:14.609Z,11.80
2022-10-04T22:37:49.007Z,11.90
2022-10-04T22:40:23.902Z,11.80
2022-10-04T22:43:01.125Z,11.80
2022-10-04T22:48:15.750Z,11.70
2022-10-04T22:50:50.277Z,11.70
2022-10-04T22:53:23.258Z,11.70
2022-10-04T23:01:02.308Z,12.00
2022-10-04T23:03:34.550Z,11.90
2022-10-04T23:06:12.993Z,11.80
2022-10-04T23:08:45.717Z,11.80
2022-10-04T23:11:17.665Z,11.80
2022-10-04T23:16:23.611Z,11.70
2022-10-04T23:19:23.371Z,11.70
2022-10-04T23:21:55.714Z,11.90
2022-10-04T23:24:31.052Z,12.10
2022-10-04T23:27:04.252Z,12.10
2022-10-04T23:29:36.196Z,11.90
2022-10-04T23:32:17.572Z,11.70
2022-10-04T23:34:56.296Z,11.70
2022-10-04T23:37:32.828Z,11.60
2022-10-04T23:40:09.779Z,11.60
2022-10-04T23:42:42.125Z,11.60
2022-10-04T23:45:22.008Z,11.60
2022-10-04T23:47:58.251Z,11.50
2022-10-04T23:50:38.467Z,11.50
2022-10-04T23:53:24.015Z,11.60
2022-10-04T23:56:04.280Z,11.50
2022-10-04T23:58:40.046Z,11.20
